createdAt,value
2018-11-23T00:02:01.632Z,94.20
2018-11-23T00:07:01.612Z,94.20
2018-11-23T00:23:01.755Z,94.40
2018-11-23T00:28:01.682Z,94.40
2018-11-23T00:43:01.601Z,94.93
2018-11-23T00:58:01.629Z,95.03
2018-11-23T01:13:02.697Z,95.21
2018-11-23T01:28:01.671Z,95.01
2018-11-23T01:43:01.726Z,95.19
2018-11-23T01:58:01.638Z,95.30
2018-11-23T02:13:01.648Z,95.52
2018-11-23T02:29:01.592Z,95.34
2018-11-23T02:39:01.613Z,95.17
2018-11-23T02:54:01.731Z,95.42
2018-11-23T03:09:01.658Z,95.30
2018-11-23T03:19:01.614Z,95.04
2018-11-23T03:34:01.540Z,94.28
2018-11-23T03:49:01.617Z,93.70
2018-11-23T04:04:01.628Z,93.56
2018-11-23T04:19:01.562Z,93.38
2018-11-23T04:34:01.730Z,93.34
2018-11-23T04:49:01.862Z,93.62
2018-11-23T05:04:01.707Z,93.77
2018-11-23T05:14:01.621Z,93.94
2018-11-23T05:29:01.617Z,93.99
2018-11-23T05:44:01.620Z,94.37
2018-11-23T05:49:01.546Z,94.37
2018-11-23T05:59:01.553Z,94.23
2018-11-23T06:05:01.575Z,94.46
2018-11-23T06:15:01.750Z,94.75
2018-11-23T06:30:01.717Z,94.62
2018-11-23T06:45:01.690Z,94.90
2018-11-23T07:00:01.848Z,95.18
2018-11-23T07:15:01.884Z,96.51
2018-11-23T07:20:01.691Z,96.51
2018-11-23T07:30:02.280Z,96.82
2018-11-23T07:35:01.917Z,96.97
2018-11-23T07:45:01.747Z,97.05
2018-11-23T08:00:01.741Z,96.66
2018-11-23T08:10:01.706Z,96.43
2018-11-23T08:15:01.885Z,96.42
2018-11-23T08:20:01.954Z,96.42
2018-11-23T08:30:02.407Z,96.35
2018-11-23T08:45:01.771Z,96.57
2018-11-23T09:00:01.701Z,96.50
2018-11-23T09:15:01.699Z,96.30
2018-11-23T09:30:01.706Z,96.39
2018-11-23T09:45:02.595Z,96.11
2018-11-23T10:00:01.699Z,96.31
2018-11-23T10:15:06.696Z,96.04
2018-11-23T10:25:01.893Z,96.32
2018-11-23T10:30:01.934Z,96.32
2018-11-23T10:45:01.697Z,95.73
2018-11-23T10:50:01.703Z,95.73
2018-11-23T10:55:01.767Z,95.52
2018-11-23T11:11:01.726Z,96.23
2018-11-23T11:16:01.697Z,96.23
2018-11-23T11:31:01.724Z,96.02
2018-11-23T11:41:01.614Z,95.62
2018-11-23T11:51:01.692Z,95.86
2018-11-23T12:06:01.701Z,95.39
2018-11-23T12:21:01.696Z,95.42
2018-11-23T12:26:01.698Z,95.42
2018-11-23T12:41:01.744Z,94.35
2018-11-23T12:56:01.738Z,94.20
2018-11-23T13:11:01.948Z,94.29
2018-11-23T13:22:01.568Z,94.43
2018-11-23T13:27:01.536Z,94.43
2018-11-23T13:42:01.684Z,94.25
2018-11-23T13:57:01.592Z,94.28
2018-11-23T14:12:06.556Z,94.73
2018-11-23T14:27:01.541Z,94.95
2018-11-23T14:42:01.559Z,95.18
2018-11-23T14:57:01.593Z,95.73
2018-11-23T15:12:01.553Z,95.76
2018-11-23T15:27:01.519Z,95.87
2018-11-23T15:42:01.991Z,95.73
2018-11-23T15:57:01.594Z,95.75
2018-11-23T16:12:01.535Z,94.91
2018-11-23T16:27:01.606Z,94.57
2018-11-23T16:42:01.612Z,94.66
2018-11-23T16:52:01.616Z,94.49
2018-11-23T17:02:01.656Z,94.56
2018-11-23T17:17:01.614Z,94.17
2018-11-23T17:32:01.617Z,93.88
2018-11-23T17:47:01.613Z,94.13
2018-11-23T18:02:01.660Z,94.31
2018-11-23T18:17:01.565Z,94.39
2018-11-23T18:32:01.660Z,94.35
2018-11-23T18:47:01.626Z,93.94
2018-11-23T19:02:01.640Z,94.63
2018-11-23T19:17:01.709Z,94.41
2018-11-23T19:32:01.612Z,94.91
2018-11-23T19:47:01.603Z,95.42
2018-11-23T20:02:01.643Z,95.79
2018-11-23T20:17:01.535Z,96.04
2018-11-23T20:22:01.621Z,95.52
2018-11-23T20:37:01.604Z,96.02
2018-11-23T20:52:02.751Z,95.78
2018-11-23T20:57:01.754Z,95.78
2018-11-23T21:12:01.703Z,95.49
2018-11-23T21:27:01.552Z,95.57
2018-11-23T21:42:01.618Z,95.71
2018-11-23T21:52:01.611Z,95.74
2018-11-23T22:07:01.643Z,95.43
2018-11-23T22:22:01.598Z,95.61
2018-11-23T22:37:01.629Z,95.30
2018-11-23T22:53:01.617Z,95.82
2018-11-23T23:08:01.651Z,95.51
2018-11-23T23:13:01.612Z,95.81
2018-11-23T23:29:01.593Z,95.62
2018-11-23T23:44:04.329Z,95.39
2018-11-23T23:59:01.615Z,95.61
